createdAt,value
2023-01-19T00:02:05.969Z,1
2023-01-19T00:12:05.829Z,1
2023-01-19T00:22:05.959Z,1
2023-01-19T00:32:06.033Z,1
2023-01-19T00:42:05.959Z,1
2023-01-19T00:52:06.028Z,1
2023-01-19T01:02:06.091Z,1
2023-01-19T01:12:06.187Z,1
2023-01-19T01:22:05.921Z,1
2023-01-19T01:32:06.000Z,1
2023-01-19T01:42:06.074Z,1
2023-01-19T01:52:06.015Z,1
2023-01-19T02:02:06.152Z,1
2023-01-19T02:12:06.006Z,1
2023-01-19T02:22:06.120Z,1
2023-01-19T02:32:05.999Z,1
2023-01-19T02:42:06.121Z,1
2023-01-19T02:52:06.005Z,1
2023-01-19T03:02:06.227Z,1
2023-01-19T03:12:05.991Z,1
2023-01-19T03:22:06.183Z,1
2023-01-19T03:32:06.188Z,1
2023-01-19T03:42:06.099Z,1
2023-01-19T03:52:06.175Z,1
2023-01-19T04:02:06.104Z,1
2023-01-19T04:12:06.168Z,1
2023-01-19T04:22:06.196Z,1
2023-01-19T04:32:06.163Z,1
2023-01-19T04:42:06.482Z,1
2023-01-19T04:52:06.182Z,1
2023-01-19T05:02:06.338Z,1
2023-01-19T05:12:06.157Z,1
2023-01-19T05:22:06.277Z,1
2023-01-19T05:32:06.147Z,1
2023-01-19T05:42:06.274Z,1
2023-01-19T05:52:06.150Z,1
2023-01-19T06:02:06.274Z,1
2023-01-19T06:12:06.343Z,1
2023-01-19T06:22:06.265Z,1
2023-01-19T06:32:06.383Z,1
2023-01-19T06:42:06.259Z,1
2023-01-19T06:52:06.331Z,1
2023-01-19T07:02:26.093Z,1
2023-01-19T07:12:06.340Z,1
2023-01-19T07:22:06.455Z,1
2023-01-19T07:32:06.327Z,2
2023-01-19T07:42:06.497Z,3
2023-01-19T07:52:06.326Z,13
2023-01-19T08:02:06.661Z,30
2023-01-19T08:12:06.314Z,44
2023-01-19T08:22:06.492Z,54
2023-01-19T08:32:06.390Z,74
2023-01-19T08:42:06.453Z,81
2023-01-19T08:52:06.498Z,85
2023-01-19T09:02:06.490Z,87
2023-01-19T09:12:06.491Z,89
2023-01-19T09:22:06.440Z,92
2023-01-19T09:32:06.503Z,91
2023-01-19T09:42:06.413Z,92
2023-01-19T09:52:06.495Z,91
2023-01-19T10:02:06.607Z,93
2023-01-19T10:12:06.547Z,93
2023-01-19T10:22:06.598Z,93
2023-01-19T10:32:06.518Z,94
2023-01-19T10:42:06.611Z,94
2023-01-19T10:52:06.479Z,92
2023-01-19T11:02:06.782Z,91
2023-01-19T11:12:06.467Z,91
2023-01-19T11:22:06.577Z,94
2023-01-19T11:32:06.715Z,93
2023-01-19T11:42:06.598Z,94
2023-01-19T11:52:06.666Z,94
2023-01-19T12:02:06.628Z,94
2023-01-19T12:12:06.666Z,94
2023-01-19T12:22:06.596Z,94
2023-01-19T12:32:06.654Z,94
2023-01-19T12:42:06.599Z,94
2023-01-19T12:52:06.665Z,95
2023-01-19T13:02:06.820Z,92
2023-01-19T13:12:06.659Z,93
2023-01-19T13:22:06.865Z,93
2023-01-19T13:32:06.647Z,93
2023-01-19T13:42:06.774Z,93
2023-01-19T13:52:06.639Z,93
2023-01-19T14:02:06.895Z,93
2023-01-19T14:12:06.658Z,93
2023-01-19T14:22:06.802Z,93
2023-01-19T14:32:06.872Z,93
2023-01-19T14:42:06.791Z,91
2023-01-19T14:52:06.833Z,92
2023-01-19T15:02:06.865Z,92
2023-01-19T15:12:06.836Z,91
2023-01-19T15:22:07.115Z,91
2023-01-19T15:32:06.807Z,90
2023-01-19T15:42:06.935Z,88
2023-01-19T15:52:06.822Z,87
2023-01-19T16:02:07.223Z,84
2023-01-19T16:12:06.833Z,80
2023-01-19T16:22:06.931Z,73
2023-01-19T16:32:06.809Z,62
2023-01-19T16:42:06.941Z,45
2023-01-19T16:52:06.822Z,19
2023-01-19T17:02:07.021Z,6
2023-01-19T17:12:06.992Z,1
2023-01-19T17:22:06.918Z,1
2023-01-19T17:32:07.047Z,1
2023-01-19T17:42:06.913Z,1
2023-01-19T17:52:06.981Z,1
2023-01-19T18:02:07.118Z,1
2023-01-19T18:12:06.977Z,1
2023-01-19T18:22:07.112Z,1
2023-01-19T18:32:06.972Z,1
2023-01-19T18:42:07.095Z,1
2023-01-19T18:52:06.977Z,1
2023-01-19T19:02:07.144Z,1
2023-01-19T19:12:06.966Z,1
2023-01-19T19:22:07.095Z,1
2023-01-19T19:32:06.964Z,1
2023-01-19T19:42:07.088Z,1
2023-01-19T19:52:07.166Z,1
2023-01-19T20:02:07.187Z,1
2023-01-19T20:12:07.154Z,1
2023-01-19T20:22:07.079Z,1
2023-01-19T20:32:07.150Z,1
2023-01-19T20:42:07.068Z,1
2023-01-19T20:52:07.164Z,1
2023-01-19T21:02:07.176Z,1
2023-01-19T21:12:07.160Z,1
2023-01-19T21:22:07.270Z,1
2023-01-19T21:32:07.164Z,1
2023-01-19T21:42:07.270Z,1
2023-01-19T21:52:07.447Z,1
2023-01-19T22:02:07.331Z,1
2023-01-19T22:12:07.255Z,1
2023-01-19T22:22:07.478Z,1
2023-01-19T22:32:07.282Z,1
2023-01-19T22:42:07.365Z,1
2023-01-19T22:52:07.229Z,1
2023-01-19T23:02:07.564Z,1
2023-01-19T23:12:07.251Z,1
2023-01-19T23:22:07.368Z,1
2023-01-19T23:32:07.212Z,1
2023-01-19T23:42:07.330Z,1
2023-01-19T23:52:07.209Z,1
